KAPF/APF METAR and TAF weather

Enter ICAO airport designator
Station Type Date Time Source
KAPF METAR 2019/08/19 21:53 UTC NOAA

KAPF 192153Z 04007KT 10SM FEW050 34/22 A2996 RMK AO2 LTG DSNT E-S SLP145 T03440217


Station Type Date Time Source
KAPF Decoded METAR 2019/08/19 21:53 UTC NOAA

NAPLES MUNICIPAL AIRPORT, FL, United States (KAPF) 26-09N 081-46W
Aug 19, 2019 - 05:53 PM EDT / 2019.08.19 2153 UTC
Wind: from the NE (040 degrees) at 8 MPH (7 KT):0
Visibility: 10 mile(s):0
Sky conditions: mostly clear
Weather: Lightning observed
Temperature: 93.9 F (34.4 C)
Heat index: 100.8 F (38.2 C):1
Dew Point: 71.1 F (21.7 C)
Relative Humidity: 47%
Pressure (altimeter): 29.96 in. Hg (1014 hPa)
ob: KAPF 192153Z 04007KT 10SM FEW050 34/22 A2996 RMK AO2 LTG DSNT E-S SLP145 T03440217
cycle: 22

Station Type Date Time Source
KAPF TAF 2019/08/19 21:57 UTC NOAA

TAF
AMD KAPF 192054Z 1921/2018 VRB10KT P6SM VCTS SCT025CB BKN050
FM200100 VRB04KT P6SM SCT030

Example: see airport list